Explorer — DHRP — position and weather

sailwx.info

Track history (hours):
 
Tides and Currents Weather Stations Pressure Air Temp Water Temp Dewpoint Dewpoint Depression Visibility Wind Speed Wind Dir Waves Ship Positions

Explorer

Last reported at 2016-Aug-19 06:27 UTC. Time now 2016-Aug-24 08:27 UTC.
Position N 42°33' E 018°05'.

Length 41 m; draft 3 m.

Type: Pleasure craft. MMSI: 211293610.

Date/timePositionNaut miles runAvg speedWind from/ knotsBaromVisibWave heightAir tempDewpointWater temp
2016-Aug-19 06:27N 42°33' E 018°05'6 6.6
2016-Aug-19 05:33N 42°28' E 018°08'7 6.7
2016-Aug-19 04:33N 42°22' E 018°12'7 6.9
2016-Aug-19 03:32N 42°15' E 018°15'7 7.0
2016-Aug-19 02:32N 42°09' E 018°19'7 7.1
2016-Aug-19 01:33N 42°02' E 018°22'7 7.2
2016-Aug-19 00:32N 41°55' E 018°25'7 6.9
2016-Aug-18 23:33N 41°49' E 018°29'13 6.2
2016-Aug-18 21:26N 41°37' E 018°36'  
Track history (hours):
 
Tides and Currents Weather Stations Pressure Air Temp Water Temp Dewpoint Dewpoint Depression Visibility Wind Speed Wind Dir Waves Ship Positions

Explorer

Last reported at 2016-Aug-19 06:27 UTC. Time now 2016-Aug-24 08:27 UTC.
Position N 42°33' E 018°05'.

Length 41 m; draft 3 m.

Type: Pleasure craft. MMSI: 211293610.

Date/timePositionNaut miles runAvg speedWind from/ knotsBaromVisibWave heightAir tempDewpointWater temp
2016-Aug-19 06:27N 42°33' E 018°05'6 6.6
2016-Aug-19 05:33N 42°28' E 018°08'7 6.7
2016-Aug-19 04:33N 42°22' E 018°12'7 6.9
2016-Aug-19 03:32N 42°15' E 018°15'7 7.0
2016-Aug-19 02:32N 42°09' E 018°19'7 7.1
2016-Aug-19 01:33N 42°02' E 018°22'7 7.2
2016-Aug-19 00:32N 41°55' E 018°25'7 6.9
2016-Aug-18 23:33N 41°49' E 018°29'13 6.2
2016-Aug-18 21:26N 41°37' E 018°36'  

Dump ship's entire track history